sensor_id;sensor_type;location;lat;lon;timestamp;P1;durP1;ratioP1;P2;durP2;ratioP2
78555;SDS011;67851;51.354;7.744;2024-02-21T00:00:38;54.78;;;19.05;;
78555;SDS011;67851;51.354;7.744;2024-02-21T00:03:05;47.92;;;18.75;;
78555;SDS011;67851;51.354;7.744;2024-02-21T00:05:32;58.10;;;21.52;;
78555;SDS011;67851;51.354;7.744;2024-02-21T00:07:59;45.55;;;18.70;;
78555;SDS011;67851;51.354;7.744;2024-02-21T00:10:26;42.10;;;18.02;;
78555;SDS011;67851;51.354;7.744;2024-02-21T00:12:53;44.75;;;17.75;;
78555;SDS011;67851;51.354;7.744;2024-02-21T00:15:20;44.13;;;18.48;;
78555;SDS011;67851;51.354;7.744;2024-02-21T00:17:47;44.67;;;18.15;;
78555;SDS011;67851;51.354;7.744;2024-02-21T00:20:16;45.47;;;18.30;;
78555;SDS011;67851;51.354;7.744;2024-02-21T00:22:44;47.45;;;17.83;;
78555;SDS011;67851;51.354;7.744;2024-02-21T00:25:10;48.97;;;19.83;;
78555;SDS011;67851;51.354;7.744;2024-02-21T00:27:37;42.85;;;18.77;;
78555;SDS011;67851;51.354;7.744;2024-02-21T00:30:05;42.58;;;18.30;;
78555;SDS011;67851;51.354;7.744;2024-02-21T00:32:32;44.38;;;16.52;;
78555;SDS011;67851;51.354;7.744;2024-02-21T00:35:01;31.90;;;16.27;;
78555;SDS011;67851;51.354;7.744;2024-02-21T00:37:27;40.85;;;15.57;;
78555;SDS011;67851;51.354;7.744;2024-02-21T00:39:54;40.13;;;15.88;;
78555;SDS011;67851;51.354;7.744;2024-02-21T00:42:22;41.17;;;17.50;;
78555;SDS011;67851;51.354;7.744;2024-02-21T00:44:51;34.78;;;15.60;;
78555;SDS011;67851;51.354;7.744;2024-02-21T00:47:18;44.17;;;16.00;;
78555;SDS011;67851;51.354;7.744;2024-02-21T00:49:45;37.15;;;16.88;;
78555;SDS011;67851;51.354;7.744;2024-02-21T00:52:12;50.05;;;17.50;;
78555;SDS011;67851;51.354;7.744;2024-02-21T00:54:38;43.90;;;17.15;;
78555;SDS011;67851;51.354;7.744;2024-02-21T00:57:18;39.40;;;16.85;;
78555;SDS011;67851;51.354;7.744;2024-02-21T00:59:46;43.78;;;17.42;;
78555;SDS011;67851;51.354;7.744;2024-02-21T01:02:13;35.50;;;16.83;;
78555;SDS011;67851;51.354;7.744;2024-02-21T01:04:40;43.33;;;18.25;;
78555;SDS011;67851;51.354;7.744;2024-02-21T01:07:06;52.38;;;20.25;;
78555;SDS011;67851;51.354;7.744;2024-02-21T01:09:33;38.22;;;17.23;;
78555;SDS011;67851;51.354;7.744;2024-02-21T01:12:01;38.95;;;16.77;;
78555;SDS011;67851;51.354;7.744;2024-02-21T01:14:28;38.65;;;17.58;;
78555;SDS011;67851;51.354;7.744;2024-02-21T01:16:54;43.83;;;17.33;;
78555;SDS011;67851;51.354;7.744;2024-02-21T01:19:21;47.95;;;18.40;;
78555;SDS011;67851;51.354;7.744;2024-02-21T01:21:49;36.83;;;18.58;;
78555;SDS011;67851;51.354;7.744;2024-02-21T01:24:15;46.42;;;17.10;;
78555;SDS011;67851;51.354;7.744;2024-02-21T01:26:42;42.42;;;18.25;;
78555;SDS011;67851;51.354;7.744;2024-02-21T01:29:09;35.80;;;16.05;;
78555;SDS011;67851;51.354;7.744;2024-02-21T01:31:35;44.55;;;17.45;;
78555;SDS011;67851;51.354;7.744;2024-02-21T01:34:02;35.20;;;16.42;;
78555;SDS011;67851;51.354;7.744;2024-02-21T01:36:28;39.78;;;16.13;;
78555;SDS011;67851;51.354;7.744;2024-02-21T01:38:55;42.55;;;17.35;;
78555;SDS011;67851;51.354;7.744;2024-02-21T01:41:22;43.75;;;16.75;;
78555;SDS011;67851;51.354;7.744;2024-02-21T01:43:48;41.03;;;16.70;;
78555;SDS011;67851;51.354;7.744;2024-02-21T01:46:15;38.55;;;14.95;;
78555;SDS011;67851;51.354;7.744;2024-02-21T01:48:42;36.28;;;15.82;;
78555;SDS011;67851;51.354;7.744;2024-02-21T01:51:09;41.65;;;15.48;;
78555;SDS011;67851;51.354;7.744;2024-02-21T01:53:36;37.83;;;14.68;;
78555;SDS011;67851;51.354;7.744;2024-02-21T01:56:06;36.20;;;15.32;;
78555;SDS011;67851;51.354;7.744;2024-02-21T01:58:35;40.35;;;15.40;;
78555;SDS011;67851;51.354;7.744;2024-02-21T02:03:33;35.10;;;15.52;;
78555;SDS011;67851;51.354;7.744;2024-02-21T02:06:00;38.50;;;14.20;;
78555;SDS011;67851;51.354;7.744;2024-02-21T02:08:26;42.50;;;14.88;;
78555;SDS011;67851;51.354;7.744;2024-02-21T02:10:53;33.30;;;13.82;;
78555;SDS011;67851;51.354;7.744;2024-02-21T02:13:20;35.80;;;15.07;;
78555;SDS011;67851;51.354;7.744;2024-02-21T02:15:47;36.72;;;14.25;;
78555;SDS011;67851;51.354;7.744;2024-02-21T02:18:15;38.95;;;15.05;;
78555;SDS011;67851;51.354;7.744;2024-02-21T02:20:46;28.95;;;14.95;;
78555;SDS011;67851;51.354;7.744;2024-02-21T02:23:47;36.70;;;13.45;;
78555;SDS011;67851;51.354;7.744;2024-02-21T02:26:06;32.25;;;14.18;;
78555;SDS011;67851;51.354;7.744;2024-02-21T02:28:34;33.25;;;13.85;;
78555;SDS011;67851;51.354;7.744;2024-02-21T02:31:01;35.90;;;14.27;;
78555;SDS011;67851;51.354;7.744;2024-02-21T02:33:28;34.65;;;14.55;;
78555;SDS011;67851;51.354;7.744;2024-02-21T02:35:55;40.58;;;13.63;;
78555;SDS011;67851;51.354;7.744;2024-02-21T02:38:25;32.25;;;12.63;;
78555;SDS011;67851;51.354;7.744;2024-02-21T02:40:52;24.73;;;12.25;;
78555;SDS011;67851;51.354;7.744;2024-02-21T02:43:18;29.25;;;11.82;;
78555;SDS011;67851;51.354;7.744;2024-02-21T02:45:45;30.88;;;13.77;;
78555;SDS011;67851;51.354;7.744;2024-02-21T02:48:12;26.75;;;12.02;;
78555;SDS011;67851;51.354;7.744;2024-02-21T02:50:38;28.98;;;11.75;;
78555;SDS011;67851;51.354;7.744;2024-02-21T02:53:05;30.98;;;12.73;;
78555;SDS011;67851;51.354;7.744;2024-02-21T02:55:32;38.85;;;13.48;;
78555;SDS011;67851;51.354;7.744;2024-02-21T02:57:59;24.42;;;11.52;;
78555;SDS011;67851;51.354;7.744;2024-02-21T03:00:26;23.70;;;11.95;;
78555;SDS011;67851;51.354;7.744;2024-02-21T03:02:53;31.75;;;13.23;;
78555;SDS011;67851;51.354;7.744;2024-02-21T03:05:21;32.95;;;12.77;;
78555;SDS011;67851;51.354;7.744;2024-02-21T03:07:49;33.83;;;12.90;;
78555;SDS011;67851;51.354;7.744;2024-02-21T03:10:16;35.35;;;12.05;;
78555;SDS011;67851;51.354;7.744;2024-02-21T03:12:44;31.08;;;12.05;;
78555;SDS011;67851;51.354;7.744;2024-02-21T03:15:11;32.13;;;13.15;;
78555;SDS011;67851;51.354;7.744;2024-02-21T03:17:38;24.15;;;12.38;;
78555;SDS011;67851;51.354;7.744;2024-02-21T03:20:07;29.00;;;12.38;;
78555;SDS011;67851;51.354;7.744;2024-02-21T03:22:38;32.08;;;13.23;;
78555;SDS011;67851;51.354;7.744;2024-02-21T03:25:05;26.75;;;12.57;;
78555;SDS011;67851;51.354;7.744;2024-02-21T03:27:33;32.05;;;14.48;;
78555;SDS011;67851;51.354;7.744;2024-02-21T03:30:00;24.92;;;12.45;;
78555;SDS011;67851;51.354;7.744;2024-02-21T03:32:27;27.35;;;13.68;;
78555;SDS011;67851;51.354;7.744;2024-02-21T03:34:56;30.00;;;14.48;;
78555;SDS011;67851;51.354;7.744;2024-02-21T03:37:22;34.30;;;14.23;;
78555;SDS011;67851;51.354;7.744;2024-02-21T03:39:49;29.23;;;14.27;;
78555;SDS011;67851;51.354;7.744;2024-02-21T03:42:17;30.67;;;13.63;;
78555;SDS011;67851;51.354;7.744;2024-02-21T03:44:45;42.20;;;14.82;;
78555;SDS011;67851;51.354;7.744;2024-02-21T03:47:11;30.35;;;14.18;;
78555;SDS011;67851;51.354;7.744;2024-02-21T03:49:38;26.42;;;13.90;;
78555;SDS011;67851;51.354;7.744;2024-02-21T03:52:05;34.88;;;14.63;;
78555;SDS011;67851;51.354;7.744;2024-02-21T03:54:32;27.75;;;13.90;;
78555;SDS011;67851;51.354;7.744;2024-02-21T03:56:59;33.75;;;13.02;;
78555;SDS011;67851;51.354;7.744;2024-02-21T03:59:25;35.95;;;15.15;;
78555;SDS011;67851;51.354;7.744;2024-02-21T04:01:52;35.67;;;15.68;;
78555;SDS011;67851;51.354;7.744;2024-02-21T04:04:19;32.47;;;14.73;;
78555;SDS011;67851;51.354;7.744;2024-02-21T04:06:47;34.50;;;14.57;;
78555;SDS011;67851;51.354;7.744;2024-02-21T04:09:14;35.20;;;15.52;;
78555;SDS011;67851;51.354;7.744;2024-02-21T04:11:43;31.75;;;15.13;;
78555;SDS011;67851;51.354;7.744;2024-02-21T04:14:10;32.28;;;14.15;;
78555;SDS011;67851;51.354;7.744;2024-02-21T04:16:38;39.40;;;15.48;;
78555;SDS011;67851;51.354;7.744;2024-02-21T04:19:05;29.40;;;13.35;;
78555;SDS011;67851;51.354;7.744;2024-02-21T04:21:32;24.77;;;13.68;;
78555;SDS011;67851;51.354;7.744;2024-02-21T04:24:00;30.60;;;13.73;;
78555;SDS011;67851;51.354;7.744;2024-02-21T04:26:28;36.28;;;12.63;;
78555;SDS011;67851;51.354;7.744;2024-02-21T04:28:55;32.70;;;14.57;;
78555;SDS011;67851;51.354;7.744;2024-02-21T04:31:22;27.05;;;13.82;;
78555;SDS011;67851;51.354;7.744;2024-02-21T04:33:51;31.30;;;13.45;;
78555;SDS011;67851;51.354;7.744;2024-02-21T04:36:17;28.67;;;14.02;;
78555;SDS011;67851;51.354;7.744;2024-02-21T04:38:44;32.63;;;13.20;;
78555;SDS011;67851;51.354;7.744;2024-02-21T04:41:11;26.00;;;12.70;;
78555;SDS011;67851;51.354;7.744;2024-02-21T04:43:38;31.75;;;13.00;;
78555;SDS011;67851;51.354;7.744;2024-02-21T04:46:04;29.15;;;13.15;;
78555;SDS011;67851;51.354;7.744;2024-02-21T04:48:31;34.08;;;13.93;;
78555;SDS011;67851;51.354;7.744;2024-02-21T04:50:58;32.65;;;14.45;;
78555;SDS011;67851;51.354;7.744;2024-02-21T04:53:25;30.80;;;12.98;;
78555;SDS011;67851;51.354;7.744;2024-02-21T04:55:53;32.63;;;14.25;;
78555;SDS011;67851;51.354;7.744;2024-02-21T04:58:20;33.05;;;12.60;;
78555;SDS011;67851;51.354;7.744;2024-02-21T05:00:47;26.83;;;12.18;;
78555;SDS011;67851;51.354;7.744;2024-02-21T05:03:13;29.58;;;12.77;;
78555;SDS011;67851;51.354;7.744;2024-02-21T05:05:40;30.25;;;13.38;;
78555;SDS011;67851;51.354;7.744;2024-02-21T05:08:07;22.10;;;11.93;;
78555;SDS011;67851;51.354;7.744;2024-02-21T05:10:36;24.40;;;11.15;;
78555;SDS011;67851;51.354;7.744;2024-02-21T05:13:03;22.40;;;11.18;;
78555;SDS011;67851;51.354;7.744;2024-02-21T05:15:30;26.98;;;11.98;;
78555;SDS011;67851;51.354;7.744;2024-02-21T05:17:58;26.13;;;12.18;;
78555;SDS011;67851;51.354;7.744;2024-02-21T05:20:24;31.80;;;12.07;;
78555;SDS011;67851;51.354;7.744;2024-02-21T05:22:52;22.55;;;10.40;;
78555;SDS011;67851;51.354;7.744;2024-02-21T05:25:18;21.52;;;10.43;;
78555;SDS011;67851;51.354;7.744;2024-02-21T05:27:45;18.42;;;10.13;;
78555;SDS011;67851;51.354;7.744;2024-02-21T05:30:12;21.85;;;10.52;;
78555;SDS011;67851;51.354;7.744;2024-02-21T05:32:38;23.60;;;10.43;;
78555;SDS011;67851;51.354;7.744;2024-02-21T05:35:05;29.38;;;11.07;;
78555;SDS011;67851;51.354;7.744;2024-02-21T05:37:33;27.27;;;11.40;;
78555;SDS011;67851;51.354;7.744;2024-02-21T05:39:59;24.65;;;11.18;;
78555;SDS011;67851;51.354;7.744;2024-02-21T05:42:26;22.90;;;10.82;;
78555;SDS011;67851;51.354;7.744;2024-02-21T05:44:53;27.83;;;11.40;;
78555;SDS011;67851;51.354;7.744;2024-02-21T05:47:19;27.38;;;10.48;;
78555;SDS011;67851;51.354;7.744;2024-02-21T05:49:47;28.63;;;10.85;;
78555;SDS011;67851;51.354;7.744;2024-02-21T05:52:14;21.38;;;10.52;;
78555;SDS011;67851;51.354;7.744;2024-02-21T05:54:41;24.17;;;10.15;;
78555;SDS011;67851;51.354;7.744;2024-02-21T05:57:08;21.38;;;9.77;;
78555;SDS011;67851;51.354;7.744;2024-02-21T05:59:35;25.45;;;10.20;;
78555;SDS011;67851;51.354;7.744;2024-02-21T06:02:06;29.67;;;9.90;;
78555;SDS011;67851;51.354;7.744;2024-02-21T06:04:33;18.55;;;9.70;;
78555;SDS011;67851;51.354;7.744;2024-02-21T06:07:00;27.83;;;10.57;;
78555;SDS011;67851;51.354;7.744;2024-02-21T06:09:28;21.85;;;10.07;;
78555;SDS011;67851;51.354;7.744;2024-02-21T06:11:55;20.60;;;9.55;;
78555;SDS011;67851;51.354;7.744;2024-02-21T06:14:21;26.98;;;10.75;;
78555;SDS011;67851;51.354;7.744;2024-02-21T06:16:48;28.23;;;10.90;;
78555;SDS011;67851;51.354;7.744;2024-02-21T06:19:15;26.63;;;11.02;;
78555;SDS011;67851;51.354;7.744;2024-02-21T06:21:42;29.48;;;12.15;;
78555;SDS011;67851;51.354;7.744;2024-02-21T06:24:08;26.70;;;9.80;;
78555;SDS011;67851;51.354;7.744;2024-02-21T06:26:35;27.63;;;12.60;;
78555;SDS011;67851;51.354;7.744;2024-02-21T06:29:02;27.55;;;11.60;;
78555;SDS011;67851;51.354;7.744;2024-02-21T06:31:29;28.58;;;11.02;;
78555;SDS011;67851;51.354;7.744;2024-02-21T06:33:56;24.23;;;10.75;;
78555;SDS011;67851;51.354;7.744;2024-02-21T06:36:23;25.00;;;10.95;;
78555;SDS011;67851;51.354;7.744;2024-02-21T06:38:50;29.23;;;10.15;;
78555;SDS011;67851;51.354;7.744;2024-02-21T06:41:17;32.45;;;12.48;;
78555;SDS011;67851;51.354;7.744;2024-02-21T06:43:45;32.67;;;12.13;;
78555;SDS011;67851;51.354;7.744;2024-02-21T06:46:25;28.13;;;11.68;;
78555;SDS011;67851;51.354;7.744;2024-02-21T06:48:55;33.38;;;11.15;;
78555;SDS011;67851;51.354;7.744;2024-02-21T06:51:25;29.75;;;11.07;;
78555;SDS011;67851;51.354;7.744;2024-02-21T06:53:52;26.60;;;11.75;;
78555;SDS011;67851;51.354;7.744;2024-02-21T06:56:19;26.67;;;11.38;;
78555;SDS011;67851;51.354;7.744;2024-02-21T06:58:47;26.27;;;11.90;;
78555;SDS011;67851;51.354;7.744;2024-02-21T07:01:17;25.05;;;10.55;;
78555;SDS011;67851;51.354;7.744;2024-02-21T07:03:45;19.90;;;10.98;;
78555;SDS011;67851;51.354;7.744;2024-02-21T07:06:11;29.00;;;11.00;;
78555;SDS011;67851;51.354;7.744;2024-02-21T07:08:39;22.35;;;10.85;;
78555;SDS011;67851;51.354;7.744;2024-02-21T07:11:06;27.20;;;10.73;;
78555;SDS011;67851;51.354;7.744;2024-02-21T07:13:34;30.25;;;11.43;;
78555;SDS011;67851;51.354;7.744;2024-02-21T07:16:00;21.80;;;10.65;;
78555;SDS011;67851;51.354;7.744;2024-02-21T07:18:30;25.83;;;11.38;;
78555;SDS011;67851;51.354;7.744;2024-02-21T07:20:57;21.13;;;10.00;;
78555;SDS011;67851;51.354;7.744;2024-02-21T07:23:24;20.10;;;10.20;;
78555;SDS011;67851;51.354;7.744;2024-02-21T07:25:51;20.30;;;10.20;;
78555;SDS011;67851;51.354;7.744;2024-02-21T07:28:18;27.98;;;10.68;;
78555;SDS011;67851;51.354;7.744;2024-02-21T07:30:45;20.92;;;9.98;;
78555;SDS011;67851;51.354;7.744;2024-02-21T07:33:11;28.55;;;10.50;;
78555;SDS011;67851;51.354;7.744;2024-02-21T07:35:38;21.20;;;9.77;;
78555;SDS011;67851;51.354;7.744;2024-02-21T07:38:07;28.50;;;10.77;;
78555;SDS011;67851;51.354;7.744;2024-02-21T07:40:39;20.90;;;9.23;;
78555;SDS011;67851;51.354;7.744;2024-02-21T07:43:05;22.67;;;9.50;;
78555;SDS011;67851;51.354;7.744;2024-02-21T07:45:32;25.02;;;8.70;;
78555;SDS011;67851;51.354;7.744;2024-02-21T07:47:58;22.90;;;9.02;;
78555;SDS011;67851;51.354;7.744;2024-02-21T07:50:25;23.70;;;8.95;;
78555;SDS011;67851;51.354;7.744;2024-02-21T07:52:52;25.17;;;8.68;;
78555;SDS011;67851;51.354;7.744;2024-02-21T07:55:19;19.23;;;9.10;;
78555;SDS011;67851;51.354;7.744;2024-02-21T07:57:46;20.58;;;8.85;;
78555;SDS011;67851;51.354;7.744;2024-02-21T08:00:13;24.02;;;9.70;;
78555;SDS011;67851;51.354;7.744;2024-02-21T08:02:48;24.45;;;9.25;;
78555;SDS011;67851;51.354;7.744;2024-02-21T08:05:15;18.52;;;9.23;;
78555;SDS011;67851;51.354;7.744;2024-02-21T08:07:42;19.30;;;9.02;;
78555;SDS011;67851;51.354;7.744;2024-02-21T08:10:12;22.58;;;9.50;;
78555;SDS011;67851;51.354;7.744;2024-02-21T08:12:38;18.05;;;8.82;;
78555;SDS011;67851;51.354;7.744;2024-02-21T08:15:06;16.00;;;8.60;;
78555;SDS011;67851;51.354;7.744;2024-02-21T08:17:34;17.98;;;8.45;;
78555;SDS011;67851;51.354;7.744;2024-02-21T08:20:01;26.40;;;9.25;;
78555;SDS011;67851;51.354;7.744;2024-02-21T08:22:31;23.38;;;8.80;;
78555;SDS011;67851;51.354;7.744;2024-02-21T08:24:59;27.77;;;9.23;;
78555;SDS011;67851;51.354;7.744;2024-02-21T08:27:26;20.83;;;9.32;;
78555;SDS011;67851;51.354;7.744;2024-02-21T08:29:53;18.77;;;8.65;;
78555;SDS011;67851;51.354;7.744;2024-02-21T08:32:20;20.35;;;10.00;;
78555;SDS011;67851;51.354;7.744;2024-02-21T08:34:48;27.38;;;11.27;;
78555;SDS011;67851;51.354;7.744;2024-02-21T08:37:15;26.65;;;11.68;;
78555;SDS011;67851;51.354;7.744;2024-02-21T08:39:44;24.65;;;9.65;;
78555;SDS011;67851;51.354;7.744;2024-02-21T08:42:11;17.63;;;10.38;;
78555;SDS011;67851;51.354;7.744;2024-02-21T08:44:39;24.10;;;10.80;;
78555;SDS011;67851;51.354;7.744;2024-02-21T08:47:08;19.23;;;9.55;;
78555;SDS011;67851;51.354;7.744;2024-02-21T08:49:37;23.88;;;9.60;;
78555;SDS011;67851;51.354;7.744;2024-02-21T08:52:04;20.35;;;8.93;;
78555;SDS011;67851;51.354;7.744;2024-02-21T08:54:32;16.45;;;8.38;;
78555;SDS011;67851;51.354;7.744;2024-02-21T08:57:00;21.85;;;8.85;;
78555;SDS011;67851;51.354;7.744;2024-02-21T08:59:27;20.05;;;7.70;;
78555;SDS011;67851;51.354;7.744;2024-02-21T09:01:54;21.45;;;7.50;;
78555;SDS011;67851;51.354;7.744;2024-02-21T09:04:21;20.73;;;6.95;;
78555;SDS011;67851;51.354;7.744;2024-02-21T09:06:52;17.13;;;6.10;;
78555;SDS011;67851;51.354;7.744;2024-02-21T09:09:19;16.33;;;7.07;;
78555;SDS011;67851;51.354;7.744;2024-02-21T09:11:46;16.25;;;5.68;;
78555;SDS011;67851;51.354;7.744;2024-02-21T09:14:13;15.23;;;5.32;;
78555;SDS011;67851;51.354;7.744;2024-02-21T09:16:43;12.77;;;4.82;;
78555;SDS011;67851;51.354;7.744;2024-02-21T09:19:10;10.95;;;4.63;;
78555;SDS011;67851;51.354;7.744;2024-02-21T09:21:37;19.25;;;5.45;;
78555;SDS011;67851;51.354;7.744;2024-02-21T09:24:05;19.55;;;5.00;;
78555;SDS011;67851;51.354;7.744;2024-02-21T09:26:31;13.38;;;4.90;;
78555;SDS011;67851;51.354;7.744;2024-02-21T09:28:59;13.20;;;4.43;;
78555;SDS011;67851;51.354;7.744;2024-02-21T09:31:26;14.73;;;4.45;;
78555;SDS011;67851;51.354;7.744;2024-02-21T09:33:54;13.02;;;4.25;;
78555;SDS011;67851;51.354;7.744;2024-02-21T09:36:21;15.48;;;4.28;;
78555;SDS011;67851;51.354;7.744;2024-02-21T09:38:48;19.30;;;4.82;;
78555;SDS011;67851;51.354;7.744;2024-02-21T09:41:16;12.70;;;4.13;;
78555;SDS011;67851;51.354;7.744;2024-02-21T09:43:50;16.92;;;4.93;;
78555;SDS011;67851;51.354;7.744;2024-02-21T09:46:21;14.30;;;4.85;;
78555;SDS011;67851;51.354;7.744;2024-02-21T09:48:57;16.38;;;4.45;;
78555;SDS011;67851;51.354;7.744;2024-02-21T09:51:39;13.27;;;4.55;;
78555;SDS011;67851;51.354;7.744;2024-02-21T09:54:07;12.05;;;4.72;;
78555;SDS011;67851;51.354;7.744;2024-02-21T09:56:44;17.00;;;4.53;;
78555;SDS011;67851;51.354;7.744;2024-02-21T09:59:11;16.60;;;4.32;;
78555;SDS011;67851;51.354;7.744;2024-02-21T10:01:39;18.15;;;4.97;;
78555;SDS011;67851;51.354;7.744;2024-02-21T10:04:11;15.43;;;4.72;;
78555;SDS011;67851;51.354;7.744;2024-02-21T10:06:38;15.70;;;4.85;;
78555;SDS011;67851;51.354;7.744;2024-02-21T10:09:06;20.02;;;6.25;;
78555;SDS011;67851;51.354;7.744;2024-02-21T10:11:33;19.80;;;5.90;;
78555;SDS011;67851;51.354;7.744;2024-02-21T10:14:04;15.35;;;5.40;;
78555;SDS011;67851;51.354;7.744;2024-02-21T10:16:32;14.98;;;5.90;;
78555;SDS011;67851;51.354;7.744;2024-02-21T10:19:00;16.42;;;5.65;;
78555;SDS011;67851;51.354;7.744;2024-02-21T10:21:27;16.42;;;6.22;;
78555;SDS011;67851;51.354;7.744;2024-02-21T10:23:54;18.92;;;5.45;;
78555;SDS011;67851;51.354;7.744;2024-02-21T10:26:22;16.50;;;5.85;;
78555;SDS011;67851;51.354;7.744;2024-02-21T10:28:49;14.20;;;4.75;;
78555;SDS011;67851;51.354;7.744;2024-02-21T10:31:22;17.85;;;5.50;;
78555;SDS011;67851;51.354;7.744;2024-02-21T10:36:26;13.50;;;5.03;;
78555;SDS011;67851;51.354;7.744;2024-02-21T10:38:54;19.08;;;4.90;;
78555;SDS011;67851;51.354;7.744;2024-02-21T10:41:22;21.08;;;5.85;;
78555;SDS011;67851;51.354;7.744;2024-02-21T10:43:50;15.77;;;5.20;;
78555;SDS011;67851;51.354;7.744;2024-02-21T10:46:22;15.90;;;4.65;;
78555;SDS011;67851;51.354;7.744;2024-02-21T10:48:57;12.18;;;4.65;;
78555;SDS011;67851;51.354;7.744;2024-02-21T10:51:27;22.67;;;5.32;;
78555;SDS011;67851;51.354;7.744;2024-02-21T10:54:02;16.83;;;4.75;;
78555;SDS011;67851;51.354;7.744;2024-02-21T10:56:34;18.00;;;4.97;;
78555;SDS011;67851;51.354;7.744;2024-02-21T10:59:07;13.10;;;4.20;;
78555;SDS011;67851;51.354;7.744;2024-02-21T11:01:34;14.63;;;4.63;;
78555;SDS011;67851;51.354;7.744;2024-02-21T11:04:06;12.93;;;4.30;;
78555;SDS011;67851;51.354;7.744;2024-02-21T11:06:35;14.35;;;4.63;;
78555;SDS011;67851;51.354;7.744;2024-02-21T11:09:04;11.40;;;4.28;;
78555;SDS011;67851;51.354;7.744;2024-02-21T11:11:35;17.55;;;4.93;;
78555;SDS011;67851;51.354;7.744;2024-02-21T11:14:18;12.15;;;4.55;;
78555;SDS011;67851;51.354;7.744;2024-02-21T11:16:47;17.08;;;4.88;;
78555;SDS011;67851;51.354;7.744;2024-02-21T11:19:21;8.80;;;4.00;;
78555;SDS011;67851;51.354;7.744;2024-02-21T11:21:51;15.35;;;4.35;;
78555;SDS011;67851;51.354;7.744;2024-02-21T11:24:31;12.15;;;4.63;;
78555;SDS011;67851;51.354;7.744;2024-02-21T11:27:09;13.00;;;4.07;;
78555;SDS011;67851;51.354;7.744;2024-02-21T11:29:45;13.18;;;4.18;;
78555;SDS011;67851;51.354;7.744;2024-02-21T11:32:15;14.18;;;4.22;;
78555;SDS011;67851;51.354;7.744;2024-02-21T11:35:02;11.70;;;4.40;;
78555;SDS011;67851;51.354;7.744;2024-02-21T11:37:34;15.50;;;5.00;;
78555;SDS011;67851;51.354;7.744;2024-02-21T11:40:04;11.02;;;3.63;;
78555;SDS011;67851;51.354;7.744;2024-02-21T11:42:33;14.27;;;3.85;;
78555;SDS011;67851;51.354;7.744;2024-02-21T11:45:01;13.65;;;3.78;;
78555;SDS011;67851;51.354;7.744;2024-02-21T11:47:28;16.23;;;4.45;;
78555;SDS011;67851;51.354;7.744;2024-02-21T11:49:55;16.35;;;4.40;;
78555;SDS011;67851;51.354;7.744;2024-02-21T11:52:23;11.38;;;3.70;;
78555;SDS011;67851;51.354;7.744;2024-02-21T11:57:24;10.80;;;3.78;;
78555;SDS011;67851;51.354;7.744;2024-02-21T11:59:50;11.82;;;4.10;;
78555;SDS011;67851;51.354;7.744;2024-02-21T12:02:24;11.95;;;4.10;;
78555;SDS011;67851;51.354;7.744;2024-02-21T12:04:51;12.98;;;4.00;;
78555;SDS011;67851;51.354;7.744;2024-02-21T12:07:18;14.00;;;4.20;;
78555;SDS011;67851;51.354;7.744;2024-02-21T12:09:45;13.55;;;4.55;;
78555;SDS011;67851;51.354;7.744;2024-02-21T12:12:12;10.70;;;3.70;;
78555;SDS011;67851;51.354;7.744;2024-02-21T12:14:39;13.82;;;3.83;;
78555;SDS011;67851;51.354;7.744;2024-02-21T12:17:08;15.68;;;4.40;;
78555;SDS011;67851;51.354;7.744;2024-02-21T12:19:35;14.10;;;4.00;;
78555;SDS011;67851;51.354;7.744;2024-02-21T12:22:03;15.82;;;4.05;;
78555;SDS011;67851;51.354;7.744;2024-02-21T12:24:33;12.82;;;3.95;;
78555;SDS011;67851;51.354;7.744;2024-02-21T12:27:00;14.13;;;3.92;;
78555;SDS011;67851;51.354;7.744;2024-02-21T12:29:30;13.52;;;3.65;;
78555;SDS011;67851;51.354;7.744;2024-02-21T12:31:57;15.23;;;4.55;;
78555;SDS011;67851;51.354;7.744;2024-02-21T12:34:24;12.45;;;3.92;;
78555;SDS011;67851;51.354;7.744;2024-02-21T12:36:54;13.35;;;4.13;;
78555;SDS011;67851;51.354;7.744;2024-02-21T12:39:21;12.13;;;3.80;;
78555;SDS011;67851;51.354;7.744;2024-02-21T12:41:48;11.50;;;3.90;;
78555;SDS011;67851;51.354;7.744;2024-02-21T12:44:14;12.00;;;3.58;;
78555;SDS011;67851;51.354;7.744;2024-02-21T12:46:43;12.18;;;3.17;;
78555;SDS011;67851;51.354;7.744;2024-02-21T12:49:10;14.02;;;3.78;;
78555;SDS011;67851;51.354;7.744;2024-02-21T12:51:36;11.43;;;3.38;;
78555;SDS011;67851;51.354;7.744;2024-02-21T12:54:04;12.88;;;3.20;;
78555;SDS011;67851;51.354;7.744;2024-02-21T12:56:31;14.75;;;3.50;;
78555;SDS011;67851;51.354;7.744;2024-02-21T12:58:59;12.05;;;3.35;;
78555;SDS011;67851;51.354;7.744;2024-02-21T13:01:26;11.30;;;3.53;;
78555;SDS011;67851;51.354;7.744;2024-02-21T13:03:54;13.55;;;3.97;;
78555;SDS011;67851;51.354;7.744;2024-02-21T13:06:22;15.90;;;3.80;;
78555;SDS011;67851;51.354;7.744;2024-02-21T13:08:48;18.30;;;4.60;;
78555;SDS011;67851;51.354;7.744;2024-02-21T13:11:15;11.23;;;4.40;;
78555;SDS011;67851;51.354;7.744;2024-02-21T13:13:42;12.40;;;3.42;;
78555;SDS011;67851;51.354;7.744;2024-02-21T13:16:09;15.10;;;4.50;;
78555;SDS011;67851;51.354;7.744;2024-02-21T13:18:36;11.77;;;3.53;;
78555;SDS011;67851;51.354;7.744;2024-02-21T13:21:05;10.13;;;3.95;;
78555;SDS011;67851;51.354;7.744;2024-02-21T13:23:32;9.45;;;3.70;;
78555;SDS011;67851;51.354;7.744;2024-02-21T13:25:59;18.20;;;5.28;;
78555;SDS011;67851;51.354;7.744;2024-02-21T13:28:29;13.07;;;3.70;;
78555;SDS011;67851;51.354;7.744;2024-02-21T13:30:56;13.57;;;3.70;;
78555;SDS011;67851;51.354;7.744;2024-02-21T13:33:24;11.23;;;4.10;;
78555;SDS011;67851;51.354;7.744;2024-02-21T13:35:51;11.48;;;4.47;;
78555;SDS011;67851;51.354;7.744;2024-02-21T13:38:18;9.57;;;3.13;;
78555;SDS011;67851;51.354;7.744;2024-02-21T13:40:45;11.10;;;3.42;;
78555;SDS011;67851;51.354;7.744;2024-02-21T13:43:14;12.93;;;3.50;;
78555;SDS011;67851;51.354;7.744;2024-02-21T13:45:40;8.85;;;3.30;;
78555;SDS011;67851;51.354;7.744;2024-02-21T13:48:09;12.70;;;3.22;;
78555;SDS011;67851;51.354;7.744;2024-02-21T13:50:38;18.70;;;4.70;;
78555;SDS011;67851;51.354;7.744;2024-02-21T13:53:09;10.75;;;2.88;;
78555;SDS011;67851;51.354;7.744;2024-02-21T13:55:36;12.23;;;3.28;;
78555;SDS011;67851;51.354;7.744;2024-02-21T13:58:04;11.05;;;2.95;;
78555;SDS011;67851;51.354;7.744;2024-02-21T14:00:32;10.80;;;3.60;;
78555;SDS011;67851;51.354;7.744;2024-02-21T14:03:04;9.80;;;3.30;;
78555;SDS011;67851;51.354;7.744;2024-02-21T14:05:30;12.40;;;3.53;;
78555;SDS011;67851;51.354;7.744;2024-02-21T14:07:57;9.68;;;3.33;;
78555;SDS011;67851;51.354;7.744;2024-02-21T14:10:24;9.63;;;3.33;;
78555;SDS011;67851;51.354;7.744;2024-02-21T14:12:51;10.60;;;3.10;;
78555;SDS011;67851;51.354;7.744;2024-02-21T14:15:19;9.85;;;3.80;;
78555;SDS011;67851;51.354;7.744;2024-02-21T14:17:46;13.05;;;3.67;;
78555;SDS011;67851;51.354;7.744;2024-02-21T14:20:13;10.50;;;2.85;;
78555;SDS011;67851;51.354;7.744;2024-02-21T14:22:43;7.40;;;2.97;;
78555;SDS011;67851;51.354;7.744;2024-02-21T14:25:11;9.48;;;3.15;;
78555;SDS011;67851;51.354;7.744;2024-02-21T14:27:39;9.98;;;2.88;;
78555;SDS011;67851;51.354;7.744;2024-02-21T14:30:06;12.68;;;3.22;;
78555;SDS011;67851;51.354;7.744;2024-02-21T14:32:37;12.45;;;3.20;;
78555;SDS011;67851;51.354;7.744;2024-02-21T14:35:05;9.80;;;3.13;;
78555;SDS011;67851;51.354;7.744;2024-02-21T14:37:32;11.27;;;3.58;;
78555;SDS011;67851;51.354;7.744;2024-02-21T14:39:59;16.23;;;3.30;;